Air Resources Laboratory banner image
Air Resources Laboratory web site National Oceanic and Atmospheric Administration (NOAA)

tn metar


KNQA 171050Z 05003KT 8SM RA FEW060 FEW120 21/20 A2998=